createdAt,value
2022-11-05T00:00:19.432Z,36.37
2022-11-05T00:00:49.433Z,36.40
2022-11-05T00:01:19.589Z,36.36
2022-11-05T00:01:49.752Z,36.33
2022-11-05T00:02:19.590Z,36.35
2022-11-05T00:02:49.596Z,36.33
2022-11-05T00:03:19.672Z,36.36
2022-11-05T00:03:49.746Z,36.36
2022-11-05T00:04:19.726Z,36.35
2022-11-05T00:04:49.722Z,36.35
2022-11-05T00:05:19.962Z,36.33
2022-11-05T00:05:49.920Z,36.34
2022-11-05T00:06:20.033Z,36.36
2022-11-05T00:06:50.148Z,36.31
2022-11-05T00:07:20.143Z,36.33
2022-11-05T00:07:50.272Z,36.32
2022-11-05T00:08:20.264Z,36.29
2022-11-05T00:08:50.267Z,36.29
2022-11-05T00:09:20.273Z,36.33
2022-11-05T00:09:50.371Z,36.33
2022-11-05T00:10:20.488Z,36.35
2022-11-05T00:10:50.612Z,36.31
2022-11-05T00:11:20.613Z,36.32
2022-11-05T00:11:50.727Z,36.34
2022-11-05T00:12:20.734Z,36.29
2022-11-05T00:12:50.735Z,36.37
2022-11-05T00:13:20.729Z,36.34
2022-11-05T00:13:50.720Z,36.31
2022-11-05T00:14:20.836Z,36.35
2022-11-05T00:14:50.951Z,36.36
2022-11-05T00:15:21.069Z,36.27
2022-11-05T00:15:51.072Z,36.35
2022-11-05T00:16:21.059Z,36.35
2022-11-05T00:16:51.180Z,36.34
2022-11-05T00:17:21.182Z,36.35
2022-11-05T00:17:51.319Z,36.37
2022-11-05T00:18:21.308Z,36.32
2022-11-05T00:18:51.304Z,36.33
2022-11-05T00:19:21.305Z,36.34
2022-11-05T00:19:51.418Z,36.30
2022-11-05T00:20:21.542Z,36.30
2022-11-05T00:20:51.675Z,36.31
2022-11-05T00:21:21.771Z,36.34
2022-11-05T00:21:51.768Z,36.32
2022-11-05T00:22:21.769Z,36.34
2022-11-05T00:22:51.890Z,36.30
2022-11-05T00:23:21.892Z,36.33
2022-11-05T00:23:51.879Z,36.32
2022-11-05T00:24:24.333Z,36.33
2022-11-05T00:24:52.030Z,36.33
2022-11-05T00:25:22.043Z,36.33
2022-11-05T00:25:52.023Z,36.30
2022-11-05T00:26:22.137Z,36.32
2022-11-05T00:26:52.132Z,36.33
2022-11-05T00:27:22.253Z,36.32
2022-11-05T00:27:52.453Z,36.33
2022-11-05T00:28:22.413Z,36.29
2022-11-05T00:28:52.494Z,36.36
2022-11-05T00:29:22.574Z,36.29
2022-11-05T00:29:52.661Z,36.29
2022-11-05T00:30:22.737Z,36.32
2022-11-05T00:30:52.819Z,36.26
2022-11-05T00:31:22.894Z,36.33
2022-11-05T00:31:52.977Z,36.25
2022-11-05T00:32:23.060Z,36.30
2022-11-05T00:32:53.155Z,36.27
2022-11-05T00:33:23.237Z,36.37
2022-11-05T00:33:53.327Z,36.33
2022-11-05T00:34:23.404Z,36.30
2022-11-05T00:34:53.487Z,36.30
2022-11-05T00:35:23.572Z,36.33
2022-11-05T00:35:53.659Z,36.32
2022-11-05T00:36:23.758Z,36.26
2022-11-05T00:36:53.819Z,36.33
2022-11-05T00:37:23.919Z,36.31
2022-11-05T00:37:53.919Z,36.29
2022-11-05T00:38:23.912Z,36.32
2022-11-05T00:38:53.908Z,36.30
2022-11-05T00:39:24.027Z,36.33
2022-11-05T00:39:54.145Z,36.30
2022-11-05T00:40:24.274Z,36.28
2022-11-05T00:40:54.258Z,36.31
2022-11-05T00:41:24.376Z,36.33
2022-11-05T00:41:54.370Z,36.30
2022-11-05T00:42:24.524Z,36.34
2022-11-05T00:42:54.522Z,36.33
2022-11-05T00:43:24.513Z,36.33
2022-11-05T00:43:54.512Z,36.31
2022-11-05T00:44:24.630Z,36.30
2022-11-05T00:44:54.628Z,36.28
2022-11-05T00:45:24.620Z,36.27
2022-11-05T00:45:54.737Z,36.28
2022-11-05T00:46:24.860Z,36.30
2022-11-05T00:46:59.775Z,36.27
2022-11-05T00:47:24.868Z,36.34
2022-11-05T00:47:54.995Z,36.27
2022-11-05T00:48:24.986Z,36.31
2022-11-05T00:48:54.982Z,36.34
2022-11-05T00:49:25.099Z,36.30
2022-11-05T00:49:55.091Z,36.34
2022-11-05T00:50:25.215Z,36.33
2022-11-05T00:50:55.330Z,36.30
2022-11-05T00:51:25.453Z,36.28
2022-11-05T00:51:55.466Z,36.26
2022-11-05T00:52:25.560Z,36.32
2022-11-05T00:52:55.682Z,36.30
2022-11-05T00:53:25.675Z,36.30
2022-11-05T00:53:55.667Z,36.25
2022-11-05T00:54:25.787Z,36.22
2022-11-05T00:54:55.784Z,36.28
2022-11-05T00:55:25.777Z,36.25
2022-11-05T00:55:55.892Z,36.24
2022-11-05T00:56:26.009Z,36.27
2022-11-05T00:57:00.602Z,36.25
2022-11-05T00:57:26.145Z,36.32
2022-11-05T00:57:56.263Z,36.34
2022-11-05T00:58:26.263Z,36.32
2022-11-05T00:58:56.253Z,36.28
2022-11-05T00:59:26.371Z,36.27
2022-11-05T00:59:56.367Z,36.32
2022-11-05T01:00:26.361Z,36.28
2022-11-05T01:00:56.481Z,36.32
2022-11-05T01:01:26.723Z,36.28
2022-11-05T01:01:56.937Z,36.33
2022-11-05T01:02:26.893Z,36.32
2022-11-05T01:02:56.893Z,36.28
2022-11-05T01:03:26.888Z,36.32
2022-11-05T01:03:56.883Z,36.31
2022-11-05T01:04:26.996Z,36.27
2022-11-05T01:04:56.991Z,36.28
2022-11-05T01:05:27.113Z,36.28
2022-11-05T01:05:57.243Z,36.32
2022-11-05T01:06:27.231Z,36.29
2022-11-05T01:06:57.241Z,36.25
2022-11-05T01:07:27.336Z,36.26
2022-11-05T01:07:57.328Z,36.35
2022-11-05T01:08:27.325Z,36.29
2022-11-05T01:08:57.444Z,36.35
2022-11-05T01:09:27.561Z,36.28
2022-11-05T01:09:57.554Z,36.34
2022-11-05T01:10:27.674Z,36.29
2022-11-05T01:10:57.792Z,36.29
2022-11-05T01:11:27.904Z,36.28
2022-11-05T01:11:58.025Z,36.29
2022-11-05T01:12:28.149Z,36.26
2022-11-05T01:12:58.138Z,36.26
2022-11-05T01:13:28.134Z,36.29
2022-11-05T01:13:58.249Z,36.26
2022-11-05T01:14:28.370Z,36.32
2022-11-05T01:14:58.366Z,36.33
2022-11-05T01:15:28.483Z,36.32
2022-11-05T01:15:58.597Z,36.32
2022-11-05T01:16:28.594Z,36.31
2022-11-05T01:16:58.587Z,36.32
2022-11-05T01:17:28.720Z,36.25
2022-11-05T01:17:58.718Z,36.31
2022-11-05T01:18:28.837Z,36.27
2022-11-05T01:18:58.955Z,36.27
2022-11-05T01:19:28.949Z,36.29
2022-11-05T01:19:59.082Z,36.29
2022-11-05T01:20:29.184Z,36.28
2022-11-05T01:20:59.315Z,36.27
2022-11-05T01:21:29.418Z,36.32
2022-11-05T01:21:59.428Z,36.32
2022-11-05T01:22:29.456Z,36.30
2022-11-05T01:22:59.451Z,36.29
2022-11-05T01:23:29.446Z,36.31
2022-11-05T01:23:59.563Z,36.34
2022-11-05T01:24:29.686Z,36.33
2022-11-05T01:24:59.674Z,36.36
2022-11-05T01:25:29.671Z,36.28
2022-11-05T01:25:59.665Z,36.29
2022-11-05T01:26:29.665Z,36.28
2022-11-05T01:26:59.797Z,36.32
2022-11-05T01:27:29.908Z,36.29
2022-11-05T01:27:59.983Z,36.27
2022-11-05T01:28:30.199Z,36.31
2022-11-05T01:29:00.325Z,36.26
2022-11-05T01:29:30.273Z,36.32
2022-11-05T01:30:00.357Z,36.31
2022-11-05T01:30:30.437Z,36.29
2022-11-05T01:31:00.532Z,36.31
2022-11-05T01:31:30.625Z,36.23
2022-11-05T01:32:00.682Z,36.26
2022-11-05T01:32:30.775Z,36.27
2022-11-05T01:33:00.862Z,36.31
2022-11-05T01:33:30.945Z,36.27
2022-11-05T01:34:01.021Z,36.30
2022-11-05T01:34:31.112Z,36.32
2022-11-05T01:35:01.194Z,36.25
2022-11-05T01:35:31.273Z,36.29
2022-11-05T01:36:01.350Z,36.20
2022-11-05T01:36:31.442Z,36.30
2022-11-05T01:37:01.519Z,36.26
2022-11-05T01:37:31.627Z,36.32
2022-11-05T01:38:01.656Z,36.27
2022-11-05T01:38:31.746Z,36.29
2022-11-05T01:39:01.861Z,36.31
2022-11-05T01:39:31.982Z,36.30
2022-11-05T01:40:02.099Z,36.30
2022-11-05T01:40:32.205Z,36.29
2022-11-05T01:41:02.322Z,36.30
2022-11-05T01:41:32.317Z,36.27
2022-11-05T01:42:02.433Z,36.29
2022-11-05T01:42:32.556Z,36.36
2022-11-05T01:43:02.552Z,36.27
2022-11-05T01:43:32.672Z,36.27
2022-11-05T01:44:02.783Z,36.29
2022-11-05T01:44:32.906Z,36.30
2022-11-05T01:45:03.025Z,36.29
2022-11-05T01:45:33.135Z,36.26
2022-11-05T01:46:03.128Z,36.26
2022-11-05T01:46:33.249Z,36.26
2022-11-05T01:47:03.388Z,36.30
2022-11-05T01:47:33.376Z,36.27
2022-11-05T01:48:03.490Z,36.29
2022-11-05T01:48:33.609Z,36.27
2022-11-05T01:49:03.732Z,36.26
2022-11-05T01:49:33.726Z,36.26
2022-11-05T01:50:03.844Z,36.20
2022-11-05T01:50:33.959Z,36.26
2022-11-05T01:51:04.079Z,36.23
2022-11-05T01:51:34.195Z,36.26
2022-11-05T01:52:04.199Z,36.24
2022-11-05T01:52:34.192Z,36.22
2022-11-05T01:53:04.329Z,36.24
2022-11-05T01:53:34.424Z,36.24
2022-11-05T01:54:04.539Z,36.24
2022-11-05T01:54:34.542Z,36.20
2022-11-05T01:55:04.534Z,36.27
2022-11-05T01:55:34.650Z,36.22
2022-11-05T01:56:04.643Z,36.26
2022-11-05T01:56:34.760Z,36.26
2022-11-05T01:57:04.887Z,36.23
2022-11-05T01:57:34.884Z,36.24
2022-11-05T01:58:05.004Z,36.23
2022-11-05T01:58:35.122Z,36.30
2022-11-05T01:59:05.238Z,36.30
2022-11-05T01:59:35.359Z,36.26
2022-11-05T02:00:05.476Z,36.23
2022-11-05T02:00:35.475Z,36.25
2022-11-05T02:01:05.471Z,36.23
2022-11-05T02:01:35.571Z,36.27
2022-11-05T02:02:05.672Z,36.23
2022-11-05T02:02:35.741Z,36.26
2022-11-05T02:03:05.715Z,36.23
2022-11-05T02:03:35.668Z,36.24
2022-11-05T02:04:05.794Z,36.23
2022-11-05T02:04:35.901Z,36.28
2022-11-05T02:05:05.897Z,36.27
2022-11-05T02:05:35.900Z,36.25
2022-11-05T02:06:06.007Z,36.26
2022-11-05T02:06:36.144Z,36.21
2022-11-05T02:07:06.151Z,36.27
2022-11-05T02:07:36.147Z,36.23
2022-11-05T02:08:06.286Z,36.27
2022-11-05T02:08:36.259Z,36.26
2022-11-05T02:09:06.255Z,36.20
2022-11-05T02:09:36.254Z,36.17
2022-11-05T02:10:06.246Z,36.23
2022-11-05T02:10:36.368Z,36.24
2022-11-05T02:11:06.360Z,36.25
2022-11-05T02:11:36.478Z,36.22
2022-11-05T02:12:06.606Z,36.22
2022-11-05T02:12:36.596Z,36.24
2022-11-05T02:13:06.620Z,36.24
2022-11-05T02:13:36.720Z,36.20
2022-11-05T02:14:06.716Z,36.21
2022-11-05T02:14:36.727Z,36.20
2022-11-05T02:15:06.838Z,36.21
2022-11-05T02:15:36.952Z,36.23
2022-11-05T02:16:06.965Z,36.20
2022-11-05T02:16:37.075Z,36.16
2022-11-05T02:17:07.065Z,36.24
2022-11-05T02:17:37.187Z,36.20
2022-11-05T02:18:07.301Z,36.25
2022-11-05T02:18:37.299Z,36.23
2022-11-05T02:19:07.297Z,36.19
2022-11-05T02:19:37.412Z,36.19
2022-11-05T02:20:07.525Z,36.24
2022-11-05T02:20:37.526Z,36.22
2022-11-05T02:21:07.526Z,36.24
2022-11-05T02:21:37.643Z,36.20
2022-11-05T02:22:07.773Z,36.21
2022-11-05T02:22:37.766Z,36.24
2022-11-05T02:23:07.923Z,36.25
2022-11-05T02:23:37.886Z,36.25
2022-11-05T02:24:07.981Z,36.25
2022-11-05T02:24:37.979Z,36.21
2022-11-05T02:25:07.975Z,36.24
2022-11-05T02:25:38.092Z,36.20
2022-11-05T02:26:08.211Z,36.25
2022-11-05T02:26:38.334Z,36.21
2022-11-05T02:27:08.349Z,36.24
2022-11-05T02:27:38.436Z,36.24
2022-11-05T02:28:08.517Z,36.24
2022-11-05T02:28:38.605Z,36.24
2022-11-05T02:29:08.682Z,36.24
2022-11-05T02:29:38.764Z,36.28
2022-11-05T02:30:08.843Z,36.27
2022-11-05T02:30:38.922Z,36.27
2022-11-05T02:31:09.007Z,36.24
2022-11-05T02:31:39.085Z,36.25
2022-11-05T02:32:09.177Z,36.22
2022-11-05T02:32:39.261Z,36.22
2022-11-05T02:33:09.865Z,36.21
2022-11-05T02:33:39.382Z,36.27
2022-11-05T02:34:09.471Z,36.24
2022-11-05T02:34:39.555Z,36.22
2022-11-05T02:35:09.654Z,36.25
2022-11-05T02:35:39.735Z,36.21
2022-11-05T02:36:09.817Z,36.18
2022-11-05T02:36:39.899Z,36.25
2022-11-05T02:37:10.101Z,36.22
2022-11-05T02:37:40.088Z,36.20
2022-11-05T02:38:10.208Z,36.27
2022-11-05T02:38:40.357Z,36.21
2022-11-05T02:39:10.321Z,36.25
2022-11-05T02:39:40.313Z,36.22
2022-11-05T02:40:10.431Z,36.22
2022-11-05T02:40:40.552Z,36.22
2022-11-05T02:41:10.547Z,36.24
2022-11-05T02:41:40.665Z,36.21
2022-11-05T02:42:10.793Z,36.20
2022-11-05T02:42:40.801Z,36.22
2022-11-05T02:43:11.038Z,36.22
2022-11-05T02:43:40.854Z,36.22
2022-11-05T02:44:10.851Z,36.22
2022-11-05T02:44:40.852Z,36.21
2022-11-05T02:45:10.968Z,36.20
2022-11-05T02:45:40.960Z,36.21
2022-11-05T02:46:11.079Z,36.18
2022-11-05T02:46:41.198Z,36.25
2022-11-05T02:47:16.985Z,36.20
2022-11-05T02:47:41.225Z,36.25
2022-11-05T02:48:11.335Z,36.21
2022-11-05T02:48:41.452Z,36.18
2022-11-05T02:49:11.574Z,36.21
2022-11-05T02:49:41.689Z,36.25
2022-11-05T02:50:11.806Z,36.21
2022-11-05T02:50:41.802Z,36.24
2022-11-05T02:51:11.921Z,36.18
2022-11-05T02:51:42.034Z,36.20
2022-11-05T02:52:12.158Z,36.24
2022-11-05T02:52:42.152Z,36.24
2022-11-05T02:53:12.667Z,36.24
2022-11-05T02:53:42.385Z,36.21
2022-11-05T02:54:12.525Z,36.22
2022-11-05T02:54:42.500Z,36.22
2022-11-05T02:55:12.619Z,36.22
2022-11-05T02:55:42.608Z,36.22
2022-11-05T02:56:12.727Z,36.21
2022-11-05T02:56:42.840Z,36.22
2022-11-05T02:57:12.842Z,36.22
2022-11-05T02:57:42.832Z,36.23
2022-11-05T02:58:12.950Z,36.27
2022-11-05T02:58:42.943Z,36.18
2022-11-05T02:59:12.942Z,36.21
2022-11-05T02:59:43.053Z,36.23
2022-11-05T03:00:13.171Z,36.18
2022-11-05T03:00:43.168Z,36.21
2022-11-05T03:01:13.282Z,36.19
2022-11-05T03:01:43.546Z,36.18
2022-11-05T03:02:13.709Z,36.20
2022-11-05T03:02:43.683Z,36.16
2022-11-05T03:03:13.833Z,36.22
2022-11-05T03:03:43.636Z,36.18
2022-11-05T03:04:13.759Z,36.18
2022-11-05T03:04:43.870Z,36.20
2022-11-05T03:05:13.868Z,36.19
2022-11-05T03:05:43.861Z,36.15
2022-11-05T03:06:13.980Z,36.22
2022-11-05T03:06:43.980Z,36.20
2022-11-05T03:07:13.991Z,36.22
2022-11-05T03:07:44.038Z,36.16
2022-11-05T03:08:14.035Z,36.20
2022-11-05T03:08:44.031Z,36.18
2022-11-05T03:09:14.148Z,36.19
2022-11-05T03:09:44.162Z,36.20
2022-11-05T03:10:14.139Z,36.18
2022-11-05T03:10:44.255Z,36.21
2022-11-05T03:11:14.381Z,36.19
2022-11-05T03:11:44.367Z,36.18
2022-11-05T03:12:14.486Z,36.20
2022-11-05T03:12:44.477Z,36.18
2022-11-05T03:13:14.601Z,36.20
2022-11-05T03:13:44.594Z,36.18
2022-11-05T03:14:14.711Z,36.15
2022-11-05T03:14:44.710Z,36.23
2022-11-05T03:15:14.830Z,36.22
2022-11-05T03:15:44.821Z,36.22
2022-11-05T03:16:14.817Z,36.19
2022-11-05T03:16:44.811Z,36.18
2022-11-05T03:17:14.933Z,36.18
2022-11-05T03:17:44.926Z,36.22
2022-11-05T03:18:15.045Z,36.16
2022-11-05T03:18:45.163Z,36.20
2022-11-05T03:19:15.161Z,36.22
2022-11-05T03:19:45.152Z,36.23
2022-11-05T03:20:15.283Z,36.23
2022-11-05T03:20:45.269Z,36.20
2022-11-05T03:21:15.262Z,36.20
2022-11-05T03:21:45.389Z,36.19
2022-11-05T03:22:15.502Z,36.25
2022-11-05T03:22:45.503Z,36.21
2022-11-05T03:23:15.614Z,36.20
2022-11-05T03:23:45.611Z,36.19
2022-11-05T03:24:15.610Z,36.20
2022-11-05T03:24:45.723Z,36.20
2022-11-05T03:25:15.949Z,36.23
2022-11-05T03:25:45.901Z,36.18
2022-11-05T03:26:16.021Z,36.16
2022-11-05T03:26:46.136Z,36.18
2022-11-05T03:27:16.257Z,36.22
2022-11-05T03:27:46.346Z,36.19
2022-11-05T03:28:16.434Z,36.20
2022-11-05T03:28:46.513Z,36.19
2022-11-05T03:29:16.597Z,36.19
2022-11-05T03:29:46.678Z,36.19
2022-11-05T03:30:16.759Z,36.18
2022-11-05T03:30:46.848Z,36.15
2022-11-05T03:31:16.944Z,36.15
2022-11-05T03:31:47.024Z,36.20
2022-11-05T03:32:17.119Z,36.20
2022-11-05T03:32:47.198Z,36.20
2022-11-05T03:33:17.279Z,36.20
2022-11-05T03:33:47.366Z,36.16
2022-11-05T03:34:17.455Z,36.20
2022-11-05T03:34:47.538Z,36.20
2022-11-05T03:35:17.624Z,36.19
2022-11-05T03:35:47.701Z,36.16
2022-11-05T03:36:17.788Z,36.16
2022-11-05T03:36:47.869Z,36.16
2022-11-05T03:37:17.953Z,36.15
2022-11-05T03:37:47.947Z,36.16
2022-11-05T03:38:18.063Z,36.20
2022-11-05T03:38:48.076Z,36.16
2022-11-05T03:39:18.070Z,36.12
2022-11-05T03:39:48.184Z,36.12
2022-11-05T03:40:18.205Z,36.12
2022-11-05T03:40:48.176Z,36.15
2022-11-05T03:41:18.295Z,36.12
2022-11-05T03:41:48.291Z,36.16
2022-11-05T03:42:18.287Z,36.13
2022-11-05T03:42:48.404Z,36.13
2022-11-05T03:43:18.404Z,36.08
2022-11-05T03:43:48.403Z,36.12
2022-11-05T03:44:18.394Z,36.16
2022-11-05T03:44:48.387Z,36.17
2022-11-05T03:45:18.511Z,36.15
2022-11-05T03:45:48.627Z,36.15
2022-11-05T03:46:18.748Z,36.08
2022-11-05T03:46:48.748Z,36.06
2022-11-05T03:47:18.870Z,36.11
2022-11-05T03:47:48.880Z,36.09
2022-11-05T03:48:18.973Z,36.10
2022-11-05T03:48:49.055Z,36.13
2022-11-05T03:49:19.056Z,36.13
2022-11-05T03:49:49.055Z,36.12
2022-11-05T03:50:19.169Z,36.20
2022-11-05T03:50:49.288Z,36.11
2022-11-05T03:51:19.411Z,36.13
2022-11-05T03:51:49.399Z,36.16
2022-11-05T03:52:19.513Z,36.13
2022-11-05T03:52:49.507Z,36.17
2022-11-05T03:53:19.507Z,36.13
2022-11-05T03:53:49.495Z,36.16
2022-11-05T03:54:19.620Z,36.12
2022-11-05T03:54:49.628Z,36.10
2022-11-05T03:55:19.617Z,36.10
2022-11-05T03:55:49.758Z,36.10
2022-11-05T03:56:19.731Z,36.13
2022-11-05T03:56:49.844Z,36.16
2022-11-05T03:57:19.841Z,36.09
2022-11-05T03:57:49.834Z,36.10
2022-11-05T03:58:19.945Z,36.10
2022-11-05T03:58:53.369Z,36.12
2022-11-05T03:59:19.961Z,36.15
2022-11-05T03:59:50.075Z,36.12
2022-11-05T04:00:20.070Z,36.15
2022-11-05T04:00:50.191Z,36.10
2022-11-05T04:01:20.415Z,36.09
2022-11-05T04:01:50.477Z,36.12
2022-11-05T04:02:20.689Z,36.12
2022-11-05T04:02:50.616Z,36.10
2022-11-05T04:03:20.420Z,36.10
2022-11-05T04:03:50.412Z,36.09
2022-11-05T04:04:20.531Z,36.17
2022-11-05T04:04:50.527Z,36.10
2022-11-05T04:05:20.529Z,36.10
2022-11-05T04:05:50.642Z,36.13
2022-11-05T04:06:20.771Z,36.12
2022-11-05T04:06:50.763Z,36.13
2022-11-05T04:07:20.881Z,36.13
2022-11-05T04:07:50.993Z,36.16
2022-11-05T04:08:21.113Z,36.19
2022-11-05T04:08:51.104Z,36.13
2022-11-05T04:09:21.223Z,36.11
2022-11-05T04:09:51.217Z,36.10
2022-11-05T04:10:21.341Z,36.11
2022-11-05T04:10:51.481Z,36.16
2022-11-05T04:11:21.572Z,36.11
2022-11-05T04:11:51.563Z,36.14
2022-11-05T04:12:21.678Z,36.09
2022-11-05T04:12:51.681Z,36.16
2022-11-05T04:13:21.668Z,36.13
2022-11-05T04:13:51.782Z,36.11
2022-11-05T04:14:21.905Z,36.16
2022-11-05T04:14:51.900Z,36.11
2022-11-05T04:15:22.020Z,36.09
2022-11-05T04:15:52.133Z,36.14
2022-11-05T04:16:22.254Z,36.13
2022-11-05T04:16:52.242Z,36.17
2022-11-05T04:17:22.356Z,36.15
2022-11-05T04:17:52.474Z,36.07
2022-11-05T04:18:22.604Z,36.10
2022-11-05T04:18:52.601Z,36.10
2022-11-05T04:19:26.156Z,36.09
2022-11-05T04:19:52.611Z,36.07
2022-11-05T04:20:22.725Z,36.11
2022-11-05T04:20:52.842Z,36.10
2022-11-05T04:21:22.975Z,36.11
2022-11-05T04:21:53.086Z,36.13
2022-11-05T04:25:05.388Z,36.30
2022-11-05T04:25:28.284Z,36.36
2022-11-05T04:25:58.387Z,36.31
2022-11-05T04:26:28.462Z,36.31
2022-11-05T04:26:58.549Z,36.24
2022-11-05T04:27:28.622Z,36.26
2022-11-05T04:27:58.703Z,36.20
2022-11-05T04:28:28.781Z,36.19
2022-11-05T04:29:02.467Z,36.19
2022-11-05T04:29:28.988Z,36.22
2022-11-05T04:29:59.076Z,36.20
2022-11-05T04:30:29.150Z,36.18
2022-11-05T04:30:59.226Z,36.21
2022-11-05T04:31:29.305Z,36.19
2022-11-05T04:31:59.388Z,36.12
2022-11-05T04:32:29.469Z,36.18
2022-11-05T04:32:59.548Z,36.14
2022-11-05T04:33:29.626Z,36.11
2022-11-05T04:33:59.705Z,36.10
2022-11-05T04:34:29.795Z,36.10
2022-11-05T04:34:59.792Z,36.10
2022-11-05T04:35:29.906Z,36.13
2022-11-05T04:36:00.028Z,36.14
2022-11-05T04:36:30.017Z,36.09
2022-11-05T04:37:00.138Z,36.10
2022-11-05T04:37:30.132Z,36.09
2022-11-05T04:38:00.255Z,36.07
2022-11-05T04:38:30.371Z,36.11
2022-11-05T04:39:00.363Z,36.07
2022-11-05T04:39:30.378Z,36.06
2022-11-05T04:40:00.367Z,36.13
2022-11-05T04:40:30.369Z,36.07
2022-11-05T04:41:00.492Z,36.07
2022-11-05T04:41:30.503Z,36.08
2022-11-05T04:42:00.483Z,36.11
2022-11-05T04:42:30.596Z,36.06
2022-11-05T04:43:00.714Z,36.10
2022-11-05T04:43:30.714Z,36.08
2022-11-05T04:44:00.829Z,36.10
2022-11-05T04:44:30.892Z,36.07
2022-11-05T04:45:00.893Z,36.07
2022-11-05T04:45:31.003Z,36.08
2022-11-05T04:46:01.133Z,36.03
2022-11-05T04:46:31.125Z,36.04
2022-11-05T04:47:01.249Z,36.07
2022-11-05T04:47:31.234Z,36.03
2022-11-05T04:48:01.355Z,36.06
2022-11-05T04:48:31.471Z,36.02
2022-11-05T04:49:01.590Z,36.07
2022-11-05T04:49:31.719Z,36.06
2022-11-05T04:50:01.708Z,36.03
2022-11-05T04:50:31.703Z,36.02
2022-11-05T04:51:01.830Z,36.04
2022-11-05T04:51:31.954Z,36.04
2022-11-05T04:52:01.948Z,36.03
2022-11-05T04:52:32.070Z,36.06
2022-11-05T04:53:02.188Z,36.00
2022-11-05T04:53:32.304Z,36.02
2022-11-05T04:54:02.422Z,36.05
2022-11-05T04:54:32.415Z,36.03
2022-11-05T04:55:02.535Z,36.04
2022-11-05T04:55:32.595Z,36.02
2022-11-05T04:56:02.575Z,36.04
2022-11-05T04:56:32.744Z,36.00
2022-11-05T04:57:02.714Z,36.02
2022-11-05T04:57:32.707Z,36.01
2022-11-05T04:58:02.706Z,36.00
2022-11-05T04:58:32.822Z,35.99
2022-11-05T04:59:02.819Z,36.03
2022-11-05T04:59:32.943Z,35.99
2022-11-05T05:00:03.061Z,36.00
2022-11-05T05:00:33.090Z,36.03
2022-11-05T05:01:03.217Z,36.00
2022-11-05T05:01:33.343Z,36.02
2022-11-05T05:02:03.345Z,36.02
2022-11-05T05:02:33.334Z,36.01
2022-11-05T05:03:03.453Z,36.00
2022-11-05T05:03:33.448Z,35.99
2022-11-05T05:04:03.581Z,36.00
2022-11-05T05:04:33.570Z,35.99
2022-11-05T05:05:03.685Z,36.04
2022-11-05T05:05:33.680Z,36.00
2022-11-05T05:06:04.304Z,36.00
2022-11-05T05:06:33.799Z,35.96
2022-11-05T05:07:03.795Z,35.95
2022-11-05T05:07:33.911Z,35.95
2022-11-05T05:08:04.031Z,35.99
2022-11-05T05:08:34.020Z,35.99
2022-11-05T05:09:04.140Z,36.00
2022-11-05T05:09:34.255Z,35.97
2022-11-05T05:10:04.386Z,35.97
2022-11-05T05:10:34.378Z,36.00
2022-11-05T05:11:04.511Z,36.03
2022-11-05T05:11:34.496Z,36.00
2022-11-05T05:12:04.641Z,35.97
2022-11-05T05:12:34.740Z,35.99
2022-11-05T05:13:04.850Z,35.95
2022-11-05T05:13:34.968Z,36.00
2022-11-05T05:14:05.089Z,35.99
2022-11-05T05:14:35.200Z,36.01
2022-11-05T05:15:05.328Z,35.97
2022-11-05T05:15:35.316Z,36.03
2022-11-05T05:16:05.455Z,35.96
2022-11-05T05:16:35.448Z,35.99
2022-11-05T05:17:05.444Z,35.97
2022-11-05T05:17:35.442Z,36.03
2022-11-05T05:18:05.552Z,36.03
2022-11-05T05:18:35.668Z,36.04
2022-11-05T05:19:05.786Z,36.04
2022-11-05T05:19:35.778Z,35.96
2022-11-05T05:20:05.908Z,35.97
2022-11-05T05:20:35.891Z,35.98
2022-11-05T05:21:05.889Z,35.98
2022-11-05T05:21:36.004Z,35.98
2022-11-05T05:22:06.122Z,35.97
2022-11-05T05:22:36.118Z,36.00
2022-11-05T05:23:06.233Z,35.96
2022-11-05T05:23:36.227Z,35.98
2022-11-05T05:24:06.343Z,35.97
2022-11-05T05:24:36.448Z,35.99
2022-11-05T05:25:06.560Z,35.95
2022-11-05T05:25:36.644Z,35.98
2022-11-05T05:26:06.729Z,36.00
2022-11-05T05:26:36.808Z,35.94
2022-11-05T05:27:06.887Z,35.94
2022-11-05T05:27:37.107Z,35.98
2022-11-05T05:28:07.022Z,36.01
2022-11-05T05:28:37.101Z,36.03
2022-11-05T05:29:07.182Z,36.00
2022-11-05T05:29:37.264Z,35.95
2022-11-05T05:30:07.344Z,35.99
2022-11-05T05:30:37.416Z,36.02
2022-11-05T05:31:07.863Z,35.98
2022-11-05T05:31:37.567Z,35.97
2022-11-05T05:32:07.659Z,35.97
2022-11-05T05:32:37.733Z,35.98
2022-11-05T05:33:07.930Z,35.93
2022-11-05T05:33:37.839Z,35.94
2022-11-05T05:34:07.918Z,35.97
2022-11-05T05:34:38.013Z,35.97
2022-11-05T05:35:08.130Z,35.95
2022-11-05T05:35:38.249Z,35.94
2022-11-05T05:36:11.282Z,35.96
2022-11-05T05:36:38.481Z,35.95
2022-11-05T05:37:08.602Z,35.98
2022-11-05T05:37:38.711Z,35.97
2022-11-05T05:38:08.707Z,35.99
2022-11-05T05:38:38.702Z,35.94
2022-11-05T05:39:08.814Z,35.97
2022-11-05T05:39:38.931Z,35.96
2022-11-05T05:40:08.926Z,35.99
2022-11-05T05:40:39.040Z,35.97
2022-11-05T05:41:09.164Z,35.95
2022-11-05T05:41:39.158Z,35.93
2022-11-05T05:42:09.278Z,35.91
2022-11-05T05:42:43.208Z,35.96
2022-11-05T05:43:09.790Z,35.97
2022-11-05T05:43:39.489Z,35.91
2022-11-05T05:44:09.606Z,35.95
2022-11-05T05:44:39.719Z,35.95
2022-11-05T05:45:09.734Z,35.95
2022-11-05T05:45:39.727Z,35.97
2022-11-05T05:46:09.840Z,35.98
2022-11-05T05:46:39.955Z,35.98
2022-11-05T05:47:10.080Z,35.93
2022-11-05T05:47:40.071Z,35.88
2022-11-05T05:48:10.193Z,35.89
2022-11-05T05:48:40.187Z,35.87
2022-11-05T05:49:12.472Z,35.93
2022-11-05T05:49:40.297Z,35.90
2022-11-05T05:50:10.424Z,35.90
2022-11-05T05:50:40.421Z,35.85
2022-11-05T05:51:10.539Z,35.92
2022-11-05T05:51:40.532Z,35.90
2022-11-05T05:52:10.650Z,35.91
2022-11-05T05:52:40.764Z,35.87
2022-11-05T05:53:11.083Z,35.88
2022-11-05T05:53:40.828Z,35.88
2022-11-05T05:54:10.945Z,35.89
2022-11-05T05:54:43.042Z,35.93
2022-11-05T05:55:11.156Z,35.92
2022-11-05T05:55:41.151Z,35.87
2022-11-05T05:56:11.270Z,35.92
2022-11-05T05:56:41.263Z,35.92
2022-11-05T05:57:11.262Z,35.88
2022-11-05T05:57:41.379Z,35.94
2022-11-05T05:58:11.517Z,35.88
2022-11-05T05:58:41.489Z,35.93
2022-11-05T05:59:11.607Z,35.89
2022-11-05T05:59:41.723Z,35.90
2022-11-05T06:00:11.727Z,35.91
2022-11-05T06:00:41.712Z,35.91
2022-11-05T06:01:17.259Z,35.87
2022-11-05T06:01:41.970Z,35.92
2022-11-05T06:02:12.057Z,35.91
2022-11-05T06:02:42.081Z,35.91
2022-11-05T06:03:12.493Z,35.92
2022-11-05T06:03:42.065Z,35.92
2022-11-05T06:04:12.181Z,35.87
2022-11-05T06:04:42.183Z,35.96
2022-11-05T06:05:12.304Z,35.91
2022-11-05T06:05:42.297Z,35.88
2022-11-05T06:06:12.413Z,35.91
2022-11-05T06:06:42.408Z,35.93
2022-11-05T06:07:12.524Z,35.96
2022-11-05T06:07:42.642Z,35.92
2022-11-05T06:08:12.759Z,35.93
2022-11-05T06:08:42.756Z,35.87
2022-11-05T06:09:12.870Z,35.89
2022-11-05T06:09:42.985Z,35.92
2022-11-05T06:10:13.229Z,35.89
2022-11-05T06:10:43.269Z,35.91
2022-11-05T06:11:13.137Z,35.89
2022-11-05T06:11:43.253Z,35.92
2022-11-05T06:12:13.387Z,35.84
2022-11-05T06:12:43.491Z,35.93
2022-11-05T06:13:13.885Z,35.92
2022-11-05T06:13:43.672Z,35.88
2022-11-05T06:14:13.664Z,35.87
2022-11-05T06:14:43.659Z,35.91
2022-11-05T06:15:13.791Z,35.89
2022-11-05T06:15:43.789Z,35.82
2022-11-05T06:16:13.899Z,35.88
2022-11-05T06:16:44.026Z,35.87
2022-11-05T06:17:14.131Z,35.90
2022-11-05T06:17:44.257Z,35.89
2022-11-05T06:18:14.365Z,35.89
2022-11-05T06:18:44.487Z,35.89
2022-11-05T06:19:14.474Z,35.87
2022-11-05T06:19:44.608Z,35.87
2022-11-05T06:20:14.717Z,35.88
2022-11-05T06:20:44.716Z,35.85
2022-11-05T06:21:14.706Z,35.89
2022-11-05T06:21:44.822Z,35.91
2022-11-05T06:22:14.942Z,35.85
2022-11-05T06:22:44.935Z,35.92
2022-11-05T06:23:15.051Z,35.90
2022-11-05T06:23:45.193Z,35.85
2022-11-05T06:24:15.289Z,35.88
2022-11-05T06:24:45.386Z,35.86
2022-11-05T06:25:15.468Z,35.88
2022-11-05T06:25:45.545Z,35.83
2022-11-05T06:26:15.626Z,35.87
2022-11-05T06:26:45.702Z,35.86
2022-11-05T06:27:15.781Z,35.89
2022-11-05T06:27:45.861Z,35.92
2022-11-05T06:28:15.942Z,35.86
2022-11-05T06:28:46.046Z,35.85
2022-11-05T06:29:16.099Z,35.82
2022-11-05T06:29:46.188Z,35.90